createdAt,value
2017-11-16T00:03:05.187Z,9.70
2017-11-16T00:13:08.471Z,8.77
2017-11-16T00:23:11.634Z,8.90
2017-11-16T00:33:15.584Z,8.70
2017-11-16T00:43:18.760Z,8.90
2017-11-16T00:53:21.967Z,10.30
2017-11-16T01:03:25.913Z,9.87
2017-11-16T01:13:29.866Z,10.20
2017-11-16T01:23:33.820Z,12.77
2017-11-16T01:33:36.991Z,11.23
2017-11-16T01:43:40.188Z,8.90
2017-11-16T01:53:43.366Z,8.32
2017-11-16T02:03:46.534Z,9.30
2017-11-16T02:13:49.757Z,8.10
2017-11-16T02:23:52.920Z,7.80
2017-11-16T02:33:56.072Z,10.60
2017-11-16T02:43:59.268Z,10.50
2017-11-16T02:54:02.425Z,11.77
2017-11-16T03:04:05.656Z,12.33
2017-11-16T03:14:08.825Z,12.67
2017-11-16T03:24:11.974Z,11.40
2017-11-16T03:34:15.915Z,12.40
2017-11-16T03:44:19.110Z,12.07
2017-11-16T03:54:22.288Z,12.82
2017-11-16T04:04:25.459Z,12.03
2017-11-16T04:14:28.616Z,13.20
2017-11-16T04:24:31.832Z,10.50
2017-11-16T04:34:35.864Z,12.33
2017-11-16T04:44:39.043Z,9.47
2017-11-16T04:54:42.224Z,9.40
2017-11-16T05:04:45.538Z,8.65
2017-11-16T05:14:48.760Z,9.60
2017-11-16T05:24:51.957Z,10.40
2017-11-16T05:34:55.131Z,9.70
2017-11-16T05:44:58.316Z,8.70
2017-11-16T05:55:01.457Z,10.77
2017-11-16T06:05:04.666Z,9.17
2017-11-16T06:15:07.839Z,9.00
2017-11-16T06:25:11.069Z,10.97
2017-11-16T06:35:14.267Z,10.93
2017-11-16T06:45:17.449Z,10.57
2017-11-16T06:55:20.649Z,14.67
2017-11-16T07:05:23.814Z,12.23
2017-11-16T07:15:27.009Z,12.07
2017-11-16T07:25:30.192Z,9.77
2017-11-16T07:35:33.395Z,10.33
2017-11-16T07:45:36.735Z,10.90
2017-11-16T07:55:39.926Z,11.67
2017-11-16T08:05:43.103Z,11.90
2017-11-16T08:15:46.271Z,13.10
2017-11-16T08:25:49.464Z,13.83
2017-11-16T08:35:52.647Z,16.83
2017-11-16T08:45:55.822Z,16.57
2017-11-16T08:55:59.725Z,13.50
2017-11-16T09:06:02.899Z,15.97
2017-11-16T09:16:06.182Z,13.63
2017-11-16T09:26:09.340Z,13.83
2017-11-16T09:36:12.500Z,14.50
2017-11-16T09:46:15.679Z,13.83
2017-11-16T09:56:18.860Z,14.40
2017-11-16T10:06:22.065Z,15.93
2017-11-16T10:16:25.271Z,16.37
2017-11-16T10:26:29.218Z,15.32
2017-11-16T10:36:32.380Z,16.85
2017-11-16T10:46:35.585Z,18.70
2017-11-16T10:56:38.720Z,17.23
2017-11-16T11:06:41.884Z,18.30
2017-11-16T11:16:45.055Z,17.87
2017-11-16T11:26:48.235Z,16.37
2017-11-16T11:36:51.437Z,18.62
2017-11-16T11:46:54.668Z,16.57
2017-11-16T11:56:57.889Z,14.07
2017-11-16T12:07:01.175Z,15.00
2017-11-16T12:17:04.400Z,14.40
2017-11-16T12:27:07.628Z,13.40
2017-11-16T12:37:10.794Z,13.80
2017-11-16T12:47:13.975Z,14.00
2017-11-16T12:57:17.927Z,12.50
2017-11-16T13:07:21.147Z,16.67
2017-11-16T13:17:24.320Z,15.67
2017-11-16T13:27:27.519Z,17.00
2017-11-16T13:37:31.482Z,17.70
2017-11-16T13:47:35.431Z,17.20
2017-11-16T13:57:39.391Z,17.30
2017-11-16T14:07:43.360Z,15.97
2017-11-16T14:17:47.294Z,20.43
2017-11-16T14:27:51.250Z,20.00
2017-11-16T14:37:55.195Z,20.50
2017-11-16T14:47:59.159Z,19.50
2017-11-16T14:58:02.292Z,18.00
2017-11-16T15:08:06.236Z,22.03
2017-11-16T15:18:09.451Z,23.20
2017-11-16T15:28:12.712Z,25.07
2017-11-16T15:38:16.061Z,27.73
2017-11-16T15:48:19.244Z,36.70
2017-11-16T15:58:22.435Z,25.30
2017-11-16T16:08:25.643Z,29.37
2017-11-16T16:18:28.836Z,32.33
2017-11-16T16:28:32.046Z,29.47
2017-11-16T16:38:36.006Z,29.57
2017-11-16T16:48:39.212Z,28.20
2017-11-16T16:58:42.416Z,33.15
2017-11-16T17:08:46.368Z,37.40
2017-11-16T17:18:49.561Z,33.93
2017-11-16T17:28:52.737Z,39.10
2017-11-16T17:38:55.955Z,35.10
2017-11-16T17:48:59.174Z,31.90
2017-11-16T17:59:02.315Z,29.70
2017-11-16T18:09:05.470Z,31.70
2017-11-16T18:19:09.383Z,29.80
2017-11-16T18:29:12.603Z,34.70
2017-11-16T18:39:15.879Z,28.93
2017-11-16T18:49:19.092Z,31.13
2017-11-16T18:59:22.346Z,27.70
2017-11-16T19:09:25.555Z,25.02
2017-11-16T19:19:28.800Z,27.50
2017-11-16T19:29:31.973Z,22.10
2017-11-16T19:39:35.160Z,21.97
2017-11-16T19:49:39.203Z,25.93
2017-11-16T19:59:42.404Z,31.60
2017-11-16T20:09:45.586Z,32.13
2017-11-16T20:19:48.817Z,37.93
2017-11-16T20:29:52.772Z,40.27
2017-11-16T21:01:06.307Z,26.70
2017-11-16T21:11:09.518Z,31.23
2017-11-16T21:21:12.686Z,26.67
2017-11-16T21:31:15.874Z,25.53
2017-11-16T21:41:19.841Z,25.77
2017-11-16T21:51:23.061Z,22.33
2017-11-16T22:01:27.027Z,23.40
2017-11-16T22:11:30.996Z,22.73
2017-11-16T22:21:34.185Z,22.73
2017-11-16T22:31:37.407Z,22.93
2017-11-16T22:41:40.620Z,23.20
2017-11-16T22:51:43.811Z,25.27
2017-11-16T23:01:46.974Z,24.60
2017-11-16T23:11:50.947Z,26.73
2017-11-16T23:21:54.159Z,28.97
2017-11-16T23:31:58.099Z,28.67
2017-11-16T23:42:01.285Z,26.73
2017-11-16T23:52:04.490Z,25.07
